Time;durP1;ratioP1;P1;durP2;ratioP2;P2;SDS_P1;SDS_P2;PMS_P1;PMS_P2;Temp;Humidity;BMP_temperature;BMP_pressure;BME280_temperature;BME280_humidity;BME280_pressure;Samples;Min_cycle;Max_cycle;Signal;HPM_P1;HPM_P2
2021/06/04 00:01:00;;;;;;;9.17;8.27;;;17.00;99.90;;;;;;5014306;28;20268;-67
2021/06/04 00:03:26;;;;;;;8.87;8.13;;;17.10;99.90;;;;;;5014650;28;20404;-67
2021/06/04 00:05:53;;;;;;;9.13;8.53;;;17.00;99.90;;;;;;5014962;28;20407;-67
2021/06/04 00:08:22;;;;;;;9.73;8.13;;;17.00;99.90;;;;;;5014627;28;20169;-67
2021/06/04 00:10:58;;;;;;;8.33;7.73;;;17.00;99.90;;;;;;5014553;28;20388;-67
2021/06/04 00:13:31;;;;;;;9.60;8.90;;;17.00;99.90;;;;;;5014927;28;20443;-67
2021/06/04 00:16:30;;;;;;;9.33;8.63;;;17.00;99.90;;;;;;5014766;28;20452;-67
2021/06/04 00:18:57;;;;;;;7.77;7.17;;;17.00;99.90;;;;;;5014863;28;20409;-67
2021/06/04 00:21:37;;;;;;;9.80;9.00;;;16.80;99.90;;;;;;5014497;28;20962;-67
2021/06/04 00:24:05;;;;;;;8.67;7.90;;;16.80;99.90;;;;;;5014624;28;20411;-67
2021/06/04 00:26:32;;;;;;;8.87;8.27;;;16.70;99.90;;;;;;5014328;28;20409;-66
2021/06/04 00:28:58;;;;;;;9.57;8.10;;;16.70;99.90;;;;;;5014114;28;20470;-67
2021/06/04 00:31:25;;;;;;;9.00;8.30;;;16.70;99.90;;;;;;5014326;28;20428;-67
2021/06/04 00:33:50;;;;;;;9.17;8.43;;;16.70;99.90;;;;;;5014652;28;20162;-67
2021/06/04 00:36:17;;;;;;;9.80;9.00;;;16.60;99.90;;;;;;5014453;28;20494;-67
2021/06/04 00:38:43;;;;;;;8.80;8.10;;;16.70;99.90;;;;;;5014315;28;20165;-67
2021/06/04 00:41:19;;;;;;;8.43;7.87;;;16.60;99.90;;;;;;5014037;28;20458;-67
2021/06/04 00:43:45;;;;;;;9.27;8.50;;;16.60;99.90;;;;;;5014252;28;20408;-67
2021/06/04 00:46:10;;;;;;;8.73;8.00;;;16.60;99.90;;;;;;5014230;28;20404;-67
2021/06/04 00:48:37;;;;;;;9.73;8.93;;;16.50;99.90;;;;;;5013778;28;20483;-66
2021/06/04 00:51:18;;;;;;;10.47;9.47;;;16.50;99.90;;;;;;5013732;28;20197;-66
2021/06/04 00:53:44;;;;;;;9.23;8.57;;;16.50;99.90;;;;;;5014267;28;20874;-66
2021/06/04 00:56:11;;;;;;;9.67;8.77;;;16.40;99.90;;;;;;5013919;28;20464;-67
2021/06/04 00:58:41;;;;;;;10.27;9.37;;;16.40;99.90;;;;;;5014104;28;20397;-66
2021/06/04 01:01:08;;;;;;;9.10;8.30;;;16.40;99.90;;;;;;5013633;28;20842;-66
2021/06/04 01:03:38;;;;;;;9.40;8.70;;;16.30;99.90;;;;;;5013918;28;20411;-67
2021/06/04 01:06:21;;;;;;;8.07;7.50;;;16.30;99.90;;;;;;5013688;28;20727;-67
2021/06/04 01:09:03;;;;;;;10.30;9.50;;;16.20;99.90;;;;;;5013025;28;20400;-66
2021/06/04 01:12:02;;;;;;;9.93;9.13;;;16.20;99.90;;;;;;5013564;28;20435;-66
2021/06/04 01:14:42;;;;;;;9.47;8.80;;;16.10;99.90;;;;;;5013907;28;20763;-66
2021/06/04 01:17:19;;;;;;;8.47;7.80;;;16.10;99.90;;;;;;5013726;28;20457;-67
2021/06/04 01:20:00;;;;;;;7.73;7.23;;;16.10;99.90;;;;;;5013858;28;20404;-66
2021/06/04 01:23:07;;;;;;;8.30;7.70;;;16.10;99.90;;;;;;5013546;28;20424;-66
2021/06/04 01:25:44;;;;;;;7.83;7.33;;;16.00;99.90;;;;;;5013506;28;20395;-66
2021/06/04 01:28:34;;;;;;;8.20;7.50;;;15.90;99.90;;;;;;5013031;28;20400;-66
2021/06/04 01:31:21;;;;;;;8.43;7.83;;;15.90;99.90;;;;;;5013062;28;20956;-66
2021/06/04 01:33:52;;;;;;;7.23;6.70;;;15.80;99.90;;;;;;5013651;28;20428;-66
2021/06/04 01:36:22;;;;;;;8.77;8.17;;;15.80;99.90;;;;;;5013348;28;20466;-66
2021/06/04 01:38:50;;;;;;;9.47;8.63;;;15.70;99.90;;;;;;5013570;28;20879;-67
2021/06/04 01:41:20;;;;;;;9.63;8.73;;;15.70;99.90;;;;;;5012833;28;20523;-66
2021/06/04 01:44:00;;;;;;;9.47;8.57;;;15.60;99.90;;;;;;5013459;28;20933;-66
2021/06/04 01:46:33;;;;;;;8.87;8.17;;;15.60;99.90;;;;;;5013245;28;20560;-66
2021/06/04 01:49:07;;;;;;;8.83;8.13;;;15.60;99.90;;;;;;5012821;28;20411;-66
2021/06/04 01:51:42;;;;;;;7.90;7.30;;;15.50;99.90;;;;;;5012691;28;20794;-66
2021/06/04 01:54:18;;;;;;;8.83;8.03;;;15.50;99.90;;;;;;5013248;28;20406;-66
2021/06/04 01:56:51;;;;;;;8.23;7.70;;;15.40;99.90;;;;;;5012959;28;20452;-66
2021/06/04 01:59:30;;;;;;;8.53;7.83;;;15.40;99.90;;;;;;5013113;28;20425;-66
2021/06/04 02:01:56;;;;;;;8.73;7.93;;;15.30;99.90;;;;;;5012848;28;20428;-66
2021/06/04 02:04:38;;;;;;;8.97;7.73;;;15.30;99.90;;;;;;5013026;28;20422;-66
2021/06/04 02:07:08;;;;;;;8.43;7.83;;;15.30;99.90;;;;;;5012986;28;20414;-66
2021/06/04 02:09:34;;;;;;;9.43;8.63;;;15.20;99.90;;;;;;5012692;28;20475;-66
2021/06/04 02:12:01;;;;;;;9.60;8.90;;;15.20;99.90;;;;;;5012725;28;20471;-66
2021/06/04 02:14:31;;;;;;;8.77;8.10;;;15.10;99.90;;;;;;5012760;28;20424;-66
2021/06/04 02:17:40;;;;;;;11.40;10.33;;;15.00;99.90;;;;;;5012652;28;20483;-66
2021/06/04 02:20:17;;;;;;;10.00;9.10;;;15.10;99.90;;;;;;4951208;28;20569;-66
2021/06/04 02:22:58;;;;;;;10.20;9.30;;;15.00;99.90;;;;;;5008256;28;20464;-66
2021/06/04 02:25:32;;;;;;;9.00;8.20;;;15.00;99.90;;;;;;5012589;28;20397;-66
2021/06/04 02:28:29;;;;;;;8.87;8.27;;;15.00;99.90;;;;;;5012621;28;20446;-66
2021/06/04 02:31:15;;;;;;;9.70;8.90;;;14.90;99.90;;;;;;4999010;28;20468;-66
2021/06/04 02:33:45;;;;;;;9.33;8.53;;;14.80;99.90;;;;;;5012786;28;20404;-66
2021/06/04 02:36:18;;;;;;;9.70;8.90;;;14.90;99.90;;;;;;5012499;28;20952;-66
2021/06/04 02:38:58;;;;;;;10.53;9.70;;;14.80;99.90;;;;;;5012428;28;20882;-66
2021/06/04 02:41:31;;;;;;;10.37;9.50;;;14.80;99.90;;;;;;5011774;28;20874;-66
2021/06/04 02:44:08;;;;;;;11.20;10.20;;;14.80;99.90;;;;;;5012391;28;20412;-66
2021/06/04 02:46:39;;;;;;;10.87;9.97;;;14.70;99.90;;;;;;5012278;28;20404;-66
2021/06/04 02:49:08;;;;;;;10.77;9.87;;;14.70;99.90;;;;;;5012278;28;20401;-67
2021/06/04 02:51:41;;;;;;;10.17;9.30;;;14.60;99.90;;;;;;5011977;28;20519;-66
2021/06/04 02:54:12;;;;;;;9.30;8.40;;;14.60;99.90;;;;;;4995073;28;20503;-66
2021/06/04 02:56:43;;;;;;;9.80;8.60;;;14.50;99.90;;;;;;5012082;28;20459;-67
2021/06/04 02:59:17;;;;;;;9.27;8.57;;;14.50;99.90;;;;;;5012004;28;20462;-67
2021/06/04 03:01:49;;;;;;;9.87;8.97;;;14.50;99.90;;;;;;5011808;28;20415;-67
2021/06/04 03:04:15;;;;;;;9.53;8.83;;;14.50;99.90;;;;;;5012130;28;20877;-66
2021/06/04 03:06:48;;;;;;;10.00;9.20;;;14.40;99.90;;;;;;5011895;28;20400;-67
2021/06/04 03:09:21;;;;;;;10.33;9.53;;;14.40;99.90;;;;;;5011953;28;20450;-66
2021/06/04 03:11:49;;;;;;;10.23;9.30;;;14.40;99.90;;;;;;5011732;28;20517;-67
2021/06/04 03:14:17;;;;;;;8.80;8.00;;;14.40;99.90;;;;;;5011889;28;20939;-66
2021/06/04 03:16:44;;;;;;;9.20;8.50;;;14.40;99.90;;;;;;5011762;28;20440;-67
2021/06/04 03:19:12;;;;;;;7.90;7.20;;;14.40;99.90;;;;;;5011814;28;20487;-66
2021/06/04 03:22:09;;;;;;;8.70;8.10;;;14.40;99.90;;;;;;5011566;28;20470;-67
2021/06/04 03:24:37;;;;;;;7.73;7.20;;;14.30;99.90;;;;;;5010861;28;20413;-67
2021/06/04 03:27:05;;;;;;;9.57;8.87;;;14.30;99.90;;;;;;5011895;28;20411;-67
2021/06/04 03:29:31;;;;;;;9.27;8.47;;;14.30;99.90;;;;;;5011509;28;20520;-67
2021/06/04 03:32:00;;;;;;;10.40;9.40;;;14.20;99.90;;;;;;5014267;28;20503;-67
2021/06/04 03:34:26;;;;;;;9.13;8.40;;;14.20;99.90;;;;;;5015720;28;20416;-66
2021/06/04 03:36:54;;;;;;;10.10;9.10;;;14.20;99.90;;;;;;5015454;28;20840;-67
2021/06/04 03:39:25;;;;;;;12.47;11.37;;;14.20;99.90;;;;;;5015612;28;20458;-67
2021/06/04 03:41:51;;;;;;;10.67;9.77;;;14.10;99.90;;;;;;5015231;28;20451;-67
2021/06/04 03:44:20;;;;;;;10.50;9.57;;;14.10;99.90;;;;;;5015779;28;20401;-66
2021/06/04 03:46:46;;;;;;;10.50;9.57;;;14.00;99.90;;;;;;5015533;28;20418;-66
2021/06/04 03:49:14;;;;;;;10.30;9.47;;;14.00;99.90;;;;;;5015502;28;20494;-67
2021/06/04 03:51:42;;;;;;;10.43;9.53;;;14.00;99.90;;;;;;5015463;28;20474;-67
2021/06/04 03:54:11;;;;;;;11.40;10.30;;;13.90;99.90;;;;;;5015395;28;20927;-67
2021/06/04 03:56:38;;;;;;;11.87;10.87;;;13.90;99.90;;;;;;5015111;28;20482;-67
2021/06/04 03:59:05;;;;;;;11.10;10.10;;;13.90;99.90;;;;;;5015348;28;20403;-67
2021/06/04 04:01:37;;;;;;;11.53;10.57;;;13.90;99.90;;;;;;5014923;28;20432;-66
2021/06/04 04:04:04;;;;;;;11.80;10.80;;;13.90;99.90;;;;;;5015295;28;20423;-67
2021/06/04 04:06:30;;;;;;;12.20;11.00;;;13.90;99.90;;;;;;5015137;28;20495;-67
2021/06/04 04:08:56;;;;;;;11.07;10.10;;;14.00;99.90;;;;;;5015034;28;20400;-67
2021/06/04 04:11:22;;;;;;;9.47;8.70;;;14.00;99.90;;;;;;5014702;28;20489;-67
2021/06/04 04:13:49;;;;;;;11.53;10.40;;;13.90;99.90;;;;;;5014977;28;20173;-67
2021/06/04 04:16:14;;;;;;;11.43;10.37;;;13.90;99.90;;;;;;5014940;28;20208;-67
2021/06/04 04:18:40;;;;;;;12.63;11.50;;;13.90;99.90;;;;;;5015014;28;20788;-66
2021/06/04 04:21:09;;;;;;;13.50;12.20;;;13.90;99.90;;;;;;5014568;28;20283;-66
2021/06/04 04:23:42;;;;;;;12.47;11.40;;;13.90;99.90;;;;;;5014740;28;20646;-66
2021/06/04 04:26:11;;;;;;;11.40;10.30;;;13.90;99.90;;;;;;5014746;28;20409;-67
2021/06/04 04:28:39;;;;;;;12.70;11.60;;;13.90;99.90;;;;;;5014773;28;20412;-66
2021/06/04 04:31:07;;;;;;;13.23;11.50;;;13.90;99.90;;;;;;5014391;28;20440;-67
2021/06/04 04:33:34;;;;;;;12.13;10.93;;;14.00;99.90;;;;;;5014654;28;20404;-67
2021/06/04 04:36:00;;;;;;;11.60;10.50;;;13.90;99.90;;;;;;5014503;28;20456;-66
2021/06/04 04:38:25;;;;;;;12.37;11.23;;;14.00;99.90;;;;;;5014527;28;20847;-67
2021/06/04 04:41:01;;;;;;;13.27;11.97;;;14.00;99.90;;;;;;5014093;28;20190;-66
2021/06/04 04:43:33;;;;;;;13.57;12.37;;;14.00;99.90;;;;;;5013865;28;20161;-66
2021/06/04 04:46:00;;;;;;;12.87;11.50;;;14.10;99.90;;;;;;5014438;28;20491;-66
2021/06/04 04:48:26;;;;;;;13.40;12.00;;;14.10;99.90;;;;;;5014417;28;20412;-66
2021/06/04 04:50:53;;;;;;;17.00;15.30;;;14.20;99.90;;;;;;5013885;28;20408;-67
2021/06/04 04:53:19;;;;;;;15.40;13.97;;;14.20;99.90;;;;;;5014306;28;20181;-67
2021/06/04 04:55:45;;;;;;;14.37;12.97;;;14.30;99.90;;;;;;5014181;28;20827;-66
2021/06/04 04:58:12;;;;;;;15.10;13.60;;;14.30;99.90;;;;;;5014234;28;20415;-66
2021/06/04 05:00:41;;;;;;;17.30;15.53;;;14.40;99.90;;;;;;5014210;28;20407;-67
2021/06/04 05:03:08;;;;;;;16.00;14.40;;;14.50;99.90;;;;;;5014123;28;20408;-67
2021/06/04 05:05:35;;;;;;;18.60;16.30;;;14.50;99.90;;;;;;5014069;28;20425;-66
2021/06/04 05:08:00;;;;;;;17.73;15.97;;;14.60;99.90;;;;;;5013909;28;20454;-67
2021/06/04 05:10:26;;;;;;;18.03;16.47;;;14.60;99.90;;;;;;5013700;28;20412;-66
2021/06/04 05:12:52;;;;;;;16.10;14.70;;;14.60;99.90;;;;;;5013882;28;20189;-67
2021/06/04 05:15:21;;;;;;;17.63;15.87;;;14.60;99.90;;;;;;5013788;28;20169;-66
2021/06/04 05:17:48;;;;;;;18.53;16.73;;;14.70;99.90;;;;;;5013761;28;20405;-67
2021/06/04 05:20:15;;;;;;;20.47;18.40;;;14.90;99.90;;;;;;5013500;28;20413;-67
2021/06/04 05:22:41;;;;;;;18.17;16.27;;;15.00;99.90;;;;;;5013605;28;20432;-66
2021/06/04 05:25:12;;;;;;;20.47;18.47;;;15.10;99.90;;;;;;5013656;28;20405;-66
2021/06/04 05:27:38;;;;;;;20.37;17.83;;;15.30;99.90;;;;;;5013686;28;20676;-66
2021/06/04 05:30:10;;;;;;;24.57;21.90;;;15.50;99.90;;;;;;5013290;28;20499;-66
2021/06/04 05:32:36;;;;;;;26.97;21.50;;;15.60;99.90;;;;;;5013574;28;20189;-66
2021/06/04 05:35:03;;;;;;;22.63;20.20;;;15.80;99.90;;;;;;5013707;28;20492;-67
2021/06/04 05:37:28;;;;;;;28.60;24.97;;;16.00;99.90;;;;;;5013419;28;20601;-66
2021/06/04 05:39:54;;;;;;;29.30;25.83;;;16.20;99.90;;;;;;5013040;28;20404;-67
2021/06/04 05:42:20;;;;;;;31.47;24.50;;;16.30;99.90;;;;;;5013380;28;20532;-67
2021/06/04 05:44:47;;;;;;;33.17;26.20;;;16.40;99.90;;;;;;5013211;28;20174;-66
2021/06/04 05:47:14;;;;;;;29.47;24.23;;;16.50;99.90;;;;;;5013253;28;20416;-67
2021/06/04 05:49:40;;;;;;;26.93;24.07;;;16.60;99.90;;;;;;5013322;28;20416;-66
2021/06/04 05:52:10;;;;;;;26.57;23.77;;;16.80;99.90;;;;;;5013132;28;20435;-67
2021/06/04 05:54:39;;;;;;;29.87;25.70;;;16.90;99.90;;;;;;5012092;28;20559;-67
2021/06/04 05:57:05;;;;;;;30.83;26.40;;;17.10;99.90;;;;;;5012981;28;20551;-67
2021/06/04 05:59:31;;;;;;;31.73;24.50;;;17.10;99.90;;;;;;5012763;28;20407;-67
2021/06/04 06:01:58;;;;;;;33.13;24.43;;;17.30;99.90;;;;;;5012962;28;20783;-67
2021/06/04 06:04:24;;;;;;;30.57;26.77;;;17.40;99.90;;;;;;5012980;28;20403;-67
2021/06/04 06:06:52;;;;;;;33.37;24.73;;;17.50;99.90;;;;;;5012822;28;20935;-67
2021/06/04 06:09:19;;;;;;;28.43;25.33;;;17.70;99.90;;;;;;5012933;28;20431;-67
2021/06/04 06:11:45;;;;;;;34.70;28.50;;;17.80;99.90;;;;;;5012485;28;20424;-66
2021/06/04 06:14:11;;;;;;;31.50;25.77;;;17.90;99.90;;;;;;5012821;28;20764;-67
2021/06/04 06:16:38;;;;;;;43.50;32.50;;;18.10;99.90;;;;;;5012685;28;20530;-67
2021/06/04 06:19:05;;;;;;;34.97;27.63;;;18.20;99.90;;;;;;5012718;28;20816;-67
2021/06/04 06:21:32;;;;;;;30.33;26.00;;;18.30;99.90;;;;;;5012371;28;20416;-67
2021/06/04 06:23:58;;;;;;;30.07;25.30;;;18.30;99.90;;;;;;5012695;28;20491;-67
2021/06/04 06:26:28;;;;;;;31.93;26.53;;;18.40;99.90;;;;;;5012409;28;20496;-67
2021/06/04 06:28:56;;;;;;;27.50;24.57;;;18.50;99.90;;;;;;5012635;28;20502;-67
2021/06/04 06:31:26;;;;;;;33.70;28.20;;;18.50;99.90;;;;;;5012227;28;20436;-67
2021/06/04 06:33:53;;;;;;;30.13;25.50;;;18.60;99.90;;;;;;5012680;28;20994;-67
2021/06/04 06:36:26;;;;;;;34.10;28.63;;;18.70;99.90;;;;;;5012320;28;20510;-67
2021/06/04 06:38:53;;;;;;;34.20;28.63;;;18.80;99.90;;;;;;5012445;28;20412;-67
2021/06/04 06:41:19;;;;;;;27.53;24.50;;;18.90;99.90;;;;;;5012215;28;20464;-67
2021/06/04 06:43:47;;;;;;;33.20;29.40;;;19.00;99.90;;;;;;5012173;28;20921;-67
2021/06/04 06:46:14;;;;;;;29.73;26.40;;;19.20;99.90;;;;;;5012435;28;20201;-67
2021/06/04 06:48:39;;;;;;;28.03;25.10;;;19.20;99.90;;;;;;5012341;28;20416;-67
2021/06/04 06:51:09;;;;;;;31.73;27.23;;;19.30;99.90;;;;;;5012076;28;20454;-67
2021/06/04 06:53:35;;;;;;;30.10;24.83;;;19.40;99.90;;;;;;5012266;28;20170;-67
2021/06/04 06:56:01;;;;;;;32.67;25.13;;;19.50;99.90;;;;;;5012176;28;20988;-67
2021/06/04 06:58:27;;;;;;;41.20;34.00;;;19.50;99.90;;;;;;5012281;28;20421;-67
2021/06/04 07:00:54;;;;;;;38.83;32.40;;;19.60;99.90;;;;;;5011946;28;20315;-67
2021/06/04 07:03:26;;;;;;;33.67;28.40;;;19.70;99.90;;;;;;5012057;28;20412;-67
2021/06/04 07:05:53;;;;;;;37.87;31.83;;;19.70;99.90;;;;;;5011785;28;20405;-67
2021/06/04 07:08:19;;;;;;;34.33;30.37;;;19.80;99.90;;;;;;5012052;28;20404;-67
2021/06/04 07:10:45;;;;;;;34.13;30.37;;;19.90;99.90;;;;;;5011760;28;20416;-67
2021/06/04 07:13:14;;;;;;;33.17;29.23;;;19.80;99.90;;;;;;5012080;28;20427;-67
2021/06/04 07:15:40;;;;;;;35.03;29.87;;;19.90;99.90;;;;;;5012128;28;20205;-67
2021/06/04 07:18:07;;;;;;;32.33;27.00;;;20.00;99.90;;;;;;5012009;28;20463;-67
2021/06/04 07:20:35;;;;;;;41.70;33.40;;;20.00;99.90;;;;;;5011641;28;20419;-67
2021/06/04 07:23:03;;;;;;;34.13;29.27;;;20.10;99.90;;;;;;5011922;28;20419;-67
2021/06/04 07:25:32;;;;;;;34.30;28.17;;;20.10;99.90;;;;;;5011936;28;20439;-67
2021/06/04 07:27:58;;;;;;;26.13;23.13;;;20.10;99.90;;;;;;5012001;28;20395;-67
2021/06/04 07:30:30;;;;;;;33.03;27.90;;;20.10;99.90;;;;;;5012017;28;20396;-67
2021/06/04 07:32:57;;;;;;;34.70;30.93;;;20.20;99.90;;;;;;5011810;28;20843;-67
2021/06/04 07:35:24;;;;;;;37.30;30.07;;;20.30;99.90;;;;;;5011682;28;20400;-67
2021/06/04 07:37:51;;;;;;;39.70;34.90;;;20.40;99.90;;;;;;5011884;28;20987;-67
2021/06/04 07:40:20;;;;;;;39.43;33.77;;;20.60;99.90;;;;;;5011453;28;20515;-67
2021/06/04 07:42:47;;;;;;;38.13;32.90;;;20.70;99.90;;;;;;5011833;28;20420;-67
2021/06/04 07:45:14;;;;;;;36.03;30.87;;;20.90;99.90;;;;;;5011771;28;20629;-67
2021/06/04 07:47:39;;;;;;;41.33;33.90;;;20.90;99.90;;;;;;5011778;28;20411;-67
2021/06/04 07:50:08;;;;;;;32.13;26.57;;;20.90;99.90;;;;;;5011535;28;20889;-67
2021/06/04 07:52:34;;;;;;;33.80;30.20;;;20.90;99.90;;;;;;5011633;28;20193;-67
2021/06/04 07:55:00;;;;;;;37.80;30.60;;;21.00;99.90;;;;;;5011613;28;20412;-67
2021/06/04 07:57:26;;;;;;;42.70;32.40;;;21.20;99.90;;;;;;5011580;28;20456;-67
2021/06/04 07:59:52;;;;;;;27.70;24.80;;;21.20;99.90;;;;;;5011318;28;20205;-67
2021/06/04 08:02:19;;;;;;;38.77;33.80;;;21.20;99.90;;;;;;5011522;28;20871;-67
2021/06/04 08:04:45;;;;;;;32.43;27.13;;;21.20;99.90;;;;;;5011556;28;20400;-67
2021/06/04 08:07:10;;;;;;;35.50;31.57;;;21.10;99.90;;;;;;5011643;28;20408;-67
2021/06/04 08:09:37;;;;;;;35.60;29.87;;;21.20;99.90;;;;;;5011308;28;20173;-67
2021/06/04 08:12:04;;;;;;;39.33;34.43;;;21.20;99.90;;;;;;5011453;28;20205;-67
2021/06/04 08:14:31;;;;;;;34.03;30.27;;;21.30;99.90;;;;;;5011479;28;20921;-67
2021/06/04 08:16:58;;;;;;;40.53;32.60;;;21.20;99.90;;;;;;5011264;28;20802;-67
2021/06/04 08:19:25;;;;;;;40.13;32.87;;;21.20;99.90;;;;;;5014203;28;20400;-67
2021/06/04 08:21:53;;;;;;;40.07;35.77;;;21.20;99.90;;;;;;5014804;28;20439;-67
2021/06/04 08:24:23;;;;;;;37.47;32.43;;;21.30;99.90;;;;;;5014920;28;20408;-67
2021/06/04 08:26:50;;;;;;;37.20;31.63;;;21.30;99.90;;;;;;5013603;28;20424;-67
2021/06/04 08:29:16;;;;;;;40.40;34.07;;;21.50;99.90;;;;;;5014702;28;20419;-67
2021/06/04 08:31:42;;;;;;;40.37;33.60;;;21.50;99.90;;;;;;5014249;28;20440;-68
2021/06/04 08:34:08;;;;;;;36.80;30.90;;;21.60;99.90;;;;;;5014808;28;20177;-67
2021/06/04 08:36:37;;;;;;;40.20;35.03;;;21.60;99.90;;;;;;5014467;28;20499;-67
2021/06/04 08:39:09;;;;;;;39.60;32.23;;;21.60;99.90;;;;;;5014628;28;20404;-67
2021/06/04 08:42:12;;;;;;;43.60;33.80;;;21.70;99.90;;;;;;5014196;28;20444;-67
2021/06/04 08:45:08;;;;;;;40.07;35.67;;;21.80;99.90;;;;;;5014482;28;20895;-67
2021/06/04 08:47:35;;;;;;;39.17;31.70;;;22.00;99.90;;;;;;5014559;28;20416;-67
2021/06/04 08:50:38;;;;;;;39.17;33.63;;;22.10;99.90;;;;;;5014180;28;20408;-67
2021/06/04 08:53:18;;;;;;;40.80;33.60;;;22.20;99.90;;;;;;5015005;28;20412;-68
2021/06/04 08:56:00;;;;;;;34.27;30.67;;;22.20;99.90;;;;;;5014241;28;20486;-68
2021/06/04 08:58:59;;;;;;;39.13;34.40;;;22.20;99.90;;;;;;5014601;28;21172;-67
2021/06/04 09:01:34;;;;;;;35.33;30.43;;;22.40;99.90;;;;;;5014015;28;20836;-68
2021/06/04 09:04:09;;;;;;;34.60;31.00;;;22.60;99.90;;;;;;5014368;28;20408;-68
2021/06/04 09:06:53;;;;;;;33.33;29.83;;;23.10;99.90;;;;;;5014272;28;20404;-68
2021/06/04 09:09:28;;;;;;;36.13;32.30;;;23.70;99.90;;;;;;5014265;28;20415;-68
2021/06/04 09:11:57;;;;;;;25.37;22.73;;;23.80;99.90;;;;;;5013935;28;20435;-68
2021/06/04 09:14:23;;;;;;;19.63;17.63;;;24.10;99.90;;;;;;5014042;28;20487;-68
2021/06/04 09:16:52;;;;;;;20.77;18.57;;;24.50;99.90;;;;;;5013857;28;20455;-68
2021/06/04 09:19:30;;;;;;;19.57;17.43;;;25.10;99.90;;;;;;5013924;28;20491;-67
2021/06/04 09:21:55;;;;;;;18.30;16.73;;;25.40;98.90;;;;;;5013847;28;20424;-68
2021/06/04 09:24:44;;;;;;;16.63;15.13;;;25.80;99.40;;;;;;5013918;28;20406;-68
2021/06/04 09:27:31;;;;;;;13.23;12.13;;;26.30;98.20;;;;;;5013915;28;20181;-67
2021/06/04 09:30:14;;;;;;;17.60;15.80;;;26.60;96.00;;;;;;5013232;28;20408;-68
2021/06/04 09:32:41;;;;;;;16.23;14.53;;;26.60;95.20;;;;;;5013659;28;20436;-68
2021/06/04 09:35:12;;;;;;;15.90;14.30;;;26.70;95.00;;;;;;5013618;28;20412;-68
2021/06/04 09:37:38;;;;;;;15.23;13.90;;;27.20;95.80;;;;;;5013643;28;20845;-68
2021/06/04 09:40:29;;;;;;;17.03;15.33;;;27.40;94.90;;;;;;5013172;28;20511;-68
2021/06/04 09:43:02;;;;;;;14.27;12.97;;;26.70;94.10;;;;;;5013556;28;20435;-67
2021/06/04 09:45:40;;;;;;;12.57;11.30;;;26.30;94.60;;;;;;5013411;28;20431;-69
2021/06/04 09:48:13;;;;;;;13.00;11.80;;;26.20;95.50;;;;;;5013599;28;20404;-68
2021/06/04 09:50:47;;;;;;;12.63;11.47;;;26.20;95.70;;;;;;5012939;28;20783;-68
2021/06/04 09:53:18;;;;;;;11.60;10.50;;;26.30;96.20;;;;;;5013341;28;20462;-68
2021/06/04 09:56:06;;;;;;;9.60;8.80;;;26.60;95.00;;;;;;5013146;28;20742;-68
2021/06/04 09:58:53;;;;;;;18.90;17.00;;;26.60;93.50;;;;;;5013225;28;20752;-69
2021/06/04 10:01:21;;;;;;;16.37;14.83;;;26.80;95.20;;;;;;5012875;28;20431;-68
2021/06/04 10:03:57;;;;;;;15.90;14.50;;;26.70;95.30;;;;;;4995565;28;20429;-69
2021/06/04 10:06:37;;;;;;;19.50;17.70;;;26.50;95.10;;;;;;5013042;28;20419;-69
2021/06/04 10:09:26;;;;;;;18.30;16.60;;;26.10;95.30;;;;;;5013115;28;20419;-69
2021/06/04 10:12:03;;;;;;;21.87;18.03;;;25.60;98.60;;;;;;5012732;28;21108;-68
2021/06/04 10:15:02;;;;;;;32.80;24.83;;;25.20;99.70;;;;;;5013135;28;20435;-68
2021/06/04 10:20:37;;;;;;;37.37;26.00;;;24.10;99.90;;;;;;5012851;28;20873;-68
2021/06/04 10:23:07;;;;;;;14.00;12.10;;;23.70;99.90;;;;;;4995182;28;20410;-67
2021/06/04 10:25:59;;;;;;;14.67;10.67;;;23.20;99.90;;;;;;5012662;28;20411;-68
2021/06/04 10:28:44;;;;;;;16.20;14.20;;;22.90;99.90;;;;;;5012540;28;20411;-68
2021/06/04 10:31:16;;;;;;;16.37;13.87;;;22.50;99.90;;;;;;5012323;28;20428;-68
2021/06/04 10:33:57;;;;;;;11.83;10.30;;;22.40;99.90;;;;;;5012857;28;20491;-68
2021/06/04 10:36:27;;;;;;;10.07;9.17;;;22.20;99.90;;;;;;5012362;28;20483;-68
2021/06/04 10:38:56;;;;;;;8.90;6.83;;;21.90;99.90;;;;;;5012475;28;20420;-68
2021/06/04 10:41:51;;;;;;;7.17;6.57;;;21.70;99.90;;;;;;5011399;28;20440;-68
2021/06/04 10:44:35;;;;;;;7.03;5.90;;;21.40;99.90;;;;;;5012414;28;20479;-68
2021/06/04 10:47:12;;;;;;;6.80;6.20;;;21.50;99.90;;;;;;5012261;28;20405;-68
2021/06/04 10:49:53;;;;;;;11.83;8.47;;;21.90;99.90;;;;;;5012149;28;20974;-69
2021/06/04 10:52:53;;;;;;;17.53;10.17;;;22.60;99.90;;;;;;5012265;28;20475;-68
2021/06/04 10:55:25;;;;;;;14.77;13.27;;;23.30;99.90;;;;;;5012065;28;20399;-68
2021/06/04 10:58:21;;;;;;;26.53;23.73;;;24.10;99.90;;;;;;5012130;28;20492;-68
2021/06/04 11:00:50;;;;;;;22.93;19.83;;;24.90;99.90;;;;;;5011880;28;20415;-69
2021/06/04 11:03:19;;;;;;;21.07;18.43;;;25.50;99.90;;;;;;5012215;28;20754;-67
2021/06/04 11:05:56;;;;;;;19.10;17.30;;;25.50;99.90;;;;;;5011852;28;20416;-68
2021/06/04 11:08:45;;;;;;;18.30;16.50;;;25.00;99.90;;;;;;5012163;28;20447;-68
2021/06/04 11:11:23;;;;;;;21.30;19.20;;;24.60;99.90;;;;;;5011762;28;20424;-68
2021/06/04 11:14:08;;;;;;;20.17;18.10;;;24.40;99.90;;;;;;5012033;28;20415;-68
2021/06/04 11:16:45;;;;;;;22.53;20.43;;;24.30;99.90;;;;;;5011905;28;20458;-68
2021/06/04 11:19:39;;;;;;;22.10;20.00;;;24.20;99.90;;;;;;5012177;28;20427;-67
2021/06/04 11:22:28;;;;;;;22.07;19.63;;;24.80;99.90;;;;;;5011898;28;20431;-68
2021/06/04 11:25:04;;;;;;;20.50;18.50;;;25.60;99.90;;;;;;5011952;28;20404;-68
2021/06/04 11:27:58;;;;;;;20.73;18.63;;;26.30;99.90;;;;;;5011921;28;20859;-69
2021/06/04 11:30:29;;;;;;;18.43;16.70;;;27.10;99.90;;;;;;4988514;28;20431;-69
2021/06/04 11:33:02;;;;;;;18.83;16.83;;;27.10;99.90;;;;;;5012276;28;20438;-68
2021/06/04 11:35:31;;;;;;;21.53;19.27;;;27.00;99.80;;;;;;5011917;28;20400;-69
2021/06/04 11:38:00;;;;;;;19.53;17.33;;;26.50;99.90;;;;;;5011878;28;20803;-68
2021/06/04 11:40:37;;;;;;;19.37;17.37;;;26.30;99.90;;;;;;4993854;28;20428;-68
2021/06/04 11:43:09;;;;;;;16.20;14.63;;;26.00;99.90;;;;;;4994058;28;20412;-68
2021/06/04 11:45:37;;;;;;;17.23;14.53;;;25.70;99.90;;;;;;5011746;28;20773;-68
2021/06/04 11:48:20;;;;;;;17.53;15.80;;;25.40;99.90;;;;;;5011723;28;20404;-68
2021/06/04 11:50:49;;;;;;;15.87;14.37;;;25.20;99.90;;;;;;5011332;28;20417;-69
2021/06/04 11:53:36;;;;;;;18.00;16.30;;;25.30;99.90;;;;;;5014409;28;20495;-68
2021/06/04 11:56:04;;;;;;;19.53;17.80;;;25.50;99.90;;;;;;5015339;28;20462;-68
2021/06/04 11:58:29;;;;;;;26.17;19.47;;;25.50;99.90;;;;;;5015367;28;20470;-68
2021/06/04 12:01:19;;;;;;;18.13;16.47;;;25.60;99.90;;;;;;5015031;28;20810;-68
2021/06/04 12:04:02;;;;;;;20.33;18.40;;;25.50;99.90;;;;;;5015354;28;20175;-68
2021/06/04 12:06:57;;;;;;;18.03;16.30;;;25.70;99.90;;;;;;5015255;28;20400;-68
2021/06/04 12:09:31;;;;;;;13.67;12.23;;;26.00;99.50;;;;;;5010328;28;20412;-68
2021/06/04 12:12:16;;;;;;;9.93;9.13;;;26.40;99.00;;;;;;5015039;28;20477;-69
2021/06/04 12:15:02;;;;;;;7.57;7.07;;;26.60;99.00;;;;;;5015011;28;20412;-68
2021/06/04 12:17:40;;;;;;;7.87;7.17;;;27.20;98.80;;;;;;4984394;28;20495;-68
2021/06/04 12:20:27;;;;;;;9.33;8.30;;;27.40;97.30;;;;;;5014743;28;20498;-68
2021/06/04 12:22:55;;;;;;;8.70;8.10;;;27.90;96.90;;;;;;5014831;28;20793;-68
2021/06/04 12:25:49;;;;;;;8.07;7.50;;;27.90;95.30;;;;;;5014855;28;20435;-69
2021/06/04 12:28:17;;;;;;;5.67;5.17;;;27.70;95.40;;;;;;5014867;28;20826;-68
2021/06/04 12:30:43;;;;;;;6.40;5.90;;;27.70;96.10;;;;;;5014432;28;20407;-68
2021/06/04 12:33:09;;;;;;;5.10;4.70;;;28.10;94.00;;;;;;5014661;28;20396;-68
2021/06/04 12:35:44;;;;;;;4.07;3.87;;;27.90;93.90;;;;;;5014599;28;20589;-69
2021/06/04 12:38:34;;;;;;;5.00;4.60;;;27.40;94.10;;;;;;5014725;28;20165;-69
2021/06/04 12:41:03;;;;;;;5.13;4.83;;;27.90;95.30;;;;;;5014107;28;20455;-68
2021/06/04 12:43:35;;;;;;;7.07;6.47;;;28.40;94.90;;;;;;5014990;28;20404;-69
2021/06/04 12:46:10;;;;;;;10.27;9.47;;;28.70;93.80;;;;;;5014451;28;20500;-69
2021/06/04 12:48:40;;;;;;;8.63;7.83;;;28.40;93.20;;;;;;5014437;28;20905;-68
2021/06/04 12:51:10;;;;;;;9.43;8.33;;;27.80;94.00;;;;;;5014119;28;20470;-69
2021/06/04 12:53:51;;;;;;;11.67;10.70;;;27.40;94.50;;;;;;5014485;28;20400;-68
2021/06/04 12:56:20;;;;;;;11.27;10.30;;;26.80;94.80;;;;;;5014190;28;20443;-69
2021/06/04 12:58:49;;;;;;;10.00;9.20;;;26.50;96.40;;;;;;5014242;28;20927;-69
2021/06/04 13:01:46;;;;;;;11.17;10.33;;;26.30;96.00;;;;;;5013929;28;20427;-68
2021/06/04 13:04:24;;;;;;;9.10;8.40;;;26.00;96.20;;;;;;4985357;28;20511;-69